Time;durP1;ratioP1;P1;durP2;ratioP2;P2;SDS_P1;SDS_P2;PMS_P1;PMS_P2;Temp;Humidity;BMP_temperature;BMP_pressure;BME280_temperature;BME280_humidity;BME280_pressure;Samples;Min_cycle;Max_cycle;Signal;HPM_P1;HPM_P2
2023/11/19 09:29:15;;;;;;;6.90;0.97;;;13.00;99.90;;;;;;4877737;29;20221;-73
2023/11/19 09:31:42;;;;;;;7.00;1.03;;;13.00;99.90;;;;;;4879588;29;20271;-74
2023/11/19 09:34:08;;;;;;;9.47;1.07;;;12.90;99.90;;;;;;4862608;29;20232;-75
2023/11/19 09:36:35;;;;;;;12.93;0.83;;;12.80;99.90;;;;;;4862610;29;20246;-72
2023/11/19 09:39:02;;;;;;;5.97;1.00;;;12.80;99.90;;;;;;4862085;29;20215;-76
2023/11/19 09:41:30;;;;;;;6.27;1.20;;;12.70;99.90;;;;;;4861973;29;20227;-72
2023/11/19 09:43:57;;;;;;;4.07;1.30;;;12.70;99.90;;;;;;4864325;29;20232;-73
2023/11/19 09:46:27;;;;;;;6.50;0.83;;;12.80;99.90;;;;;;4880374;29;20203;-73
2023/11/19 09:48:55;;;;;;;7.33;0.90;;;12.80;99.90;;;;;;4880634;29;20344;-74
2023/11/19 09:51:22;;;;;;;7.23;0.80;;;12.80;99.90;;;;;;4880267;29;20508;-75
2023/11/19 09:53:50;;;;;;;13.53;1.20;;;12.80;99.90;;;;;;4880632;29;20231;-73
2023/11/19 09:56:17;;;;;;;9.07;1.70;;;12.90;99.90;;;;;;4880787;29;20226;-73
2023/11/19 09:58:44;;;;;;;5.13;1.00;;;13.00;99.90;;;;;;4880987;29;20710;-73
2023/11/19 10:01:12;;;;;;;6.30;1.10;;;13.00;99.90;;;;;;4880726;29;20241;-75
2023/11/19 10:03:43;;;;;;;5.80;0.90;;;13.10;99.90;;;;;;4880820;29;20242;-74
2023/11/19 10:06:11;;;;;;;5.87;1.00;;;13.20;99.90;;;;;;4880906;29;20238;-74
2023/11/19 10:08:39;;;;;;;5.40;0.90;;;13.20;99.90;;;;;;4880496;29;20207;-75
2023/11/19 10:11:06;;;;;;;8.33;1.33;;;13.10;99.90;;;;;;4880845;29;20219;-75
2023/11/19 10:13:38;;;;;;;8.77;1.60;;;13.10;99.90;;;;;;4880488;29;20217;-74
2023/11/19 10:16:08;;;;;;;9.03;1.50;;;13.10;99.90;;;;;;4880480;29;20220;-74
2023/11/19 10:18:37;;;;;;;8.83;1.10;;;13.10;99.90;;;;;;4880530;29;20218;-75
2023/11/19 10:21:07;;;;;;;9.50;0.97;;;13.00;99.90;;;;;;4879997;29;20431;-75
2023/11/19 10:23:49;;;;;;;7.73;1.03;;;13.10;99.90;;;;;;4880250;29;20697;-75
2023/11/19 10:26:16;;;;;;;5.43;1.20;;;13.10;99.90;;;;;;4880561;29;20222;-73
2023/11/19 10:28:45;;;;;;;8.10;1.47;;;13.20;99.90;;;;;;4897542;29;20249;-75
2023/11/19 10:31:12;;;;;;;10.20;1.87;;;13.20;99.90;;;;;;4898989;29;20218;-74
2023/11/19 10:33:39;;;;;;;12.60;1.03;;;13.30;99.90;;;;;;4898900;29;20320;-74
2023/11/19 10:36:08;;;;;;;11.67;1.00;;;13.30;99.90;;;;;;4898853;29;20211;-74
2023/11/19 10:38:35;;;;;;;7.90;1.13;;;13.40;99.90;;;;;;4898847;29;20295;-74
2023/11/19 10:41:02;;;;;;;4.40;0.80;;;13.70;99.90;;;;;;4898085;29;20242;-74
2023/11/19 10:43:29;;;;;;;5.40;1.17;;;13.90;99.90;;;;;;4898694;29;20309;-74
2023/11/19 10:46:09;;;;;;;7.60;1.00;;;13.90;99.90;;;;;;4898487;29;20670;-74
2023/11/19 10:48:36;;;;;;;7.17;1.10;;;13.90;99.90;;;;;;4898548;29;20564;-74
2023/11/19 10:51:08;;;;;;;7.47;1.00;;;13.70;99.90;;;;;;4898846;29;20221;-75
2023/11/19 10:53:37;;;;;;;2.67;0.70;;;13.70;99.90;;;;;;4898415;29;20670;-74
2023/11/19 10:56:08;;;;;;;3.77;0.90;;;13.80;99.90;;;;;;4898707;29;20210;-76
2023/11/19 10:58:37;;;;;;;7.77;0.90;;;13.90;99.90;;;;;;4898127;29;20291;-74
2023/11/19 11:01:12;;;;;;;3.93;1.63;;;14.00;99.90;;;;;;4898476;29;20238;-76
2023/11/19 11:03:41;;;;;;;6.07;1.17;;;14.00;99.90;;;;;;4898393;29;20229;-74
2023/11/19 11:06:10;;;;;;;6.90;1.00;;;14.00;99.90;;;;;;4898571;29;20236;-75
2023/11/19 11:08:39;;;;;;;6.30;0.90;;;14.00;99.90;;;;;;4898488;29;20213;-75
2023/11/19 11:11:08;;;;;;;6.80;0.87;;;14.00;99.90;;;;;;4897882;29;20210;-75
2023/11/19 11:13:36;;;;;;;6.03;1.20;;;14.00;99.90;;;;;;4898283;29;20228;-76
2023/11/19 11:16:07;;;;;;;10.73;1.40;;;13.80;99.90;;;;;;4897998;29;20210;-75
2023/11/19 11:18:34;;;;;;;8.60;1.27;;;13.70;99.90;;;;;;4898224;29;20298;-75
2023/11/19 11:21:04;;;;;;;4.53;0.97;;;13.50;99.90;;;;;;4897814;29;20727;-75
2023/11/19 11:23:48;;;;;;;6.17;0.70;;;13.50;99.90;;;;;;4897924;29;20305;-74
2023/11/19 11:26:44;;;;;;;5.83;1.30;;;13.40;99.90;;;;;;4897890;29;20273;-74
2023/11/19 11:29:18;;;;;;;3.47;1.00;;;13.40;99.90;;;;;;4897997;29;20692;-74
2023/11/19 11:31:54;;;;;;;4.17;0.90;;;13.40;99.90;;;;;;4897696;29;20210;-75
2023/11/19 11:34:54;;;;;;;9.30;1.20;;;13.40;99.90;;;;;;4897719;29;20322;-75
2023/11/19 11:37:28;;;;;;;10.33;1.47;;;13.50;99.90;;;;;;4897582;29;20217;-74
2023/11/19 11:39:59;;;;;;;8.77;1.23;;;13.40;99.90;;;;;;4897545;29;20221;-75
2023/11/19 11:42:35;;;;;;;8.30;1.20;;;13.40;99.90;;;;;;4897758;29;20543;-74
2023/11/19 11:45:07;;;;;;;4.60;0.90;;;13.30;99.90;;;;;;4897846;29;20263;-74
2023/11/19 11:48:10;;;;;;;3.07;0.83;;;13.30;99.90;;;;;;4897510;29;20697;-74
2023/11/19 11:50:47;;;;;;;7.33;1.23;;;13.30;99.90;;;;;;4897476;29;20304;-75
2023/11/19 11:53:15;;;;;;;8.93;1.10;;;13.30;99.90;;;;;;4898337;29;20214;-74
2023/11/19 11:55:57;;;;;;;3.83;0.80;;;13.30;99.90;;;;;;4901475;29;20601;-75
2023/11/19 11:58:28;;;;;;;5.73;1.43;;;13.30;99.90;;;;;;4901583;29;20305;-74
2023/11/19 12:00:55;;;;;;;4.27;0.80;;;13.40;99.90;;;;;;4901243;29;20265;-75
2023/11/19 12:03:22;;;;;;;7.07;1.50;;;13.50;99.90;;;;;;4901380;29;20226;-75
2023/11/19 12:05:50;;;;;;;4.77;0.90;;;13.60;99.90;;;;;;4901281;29;20221;-75
2023/11/19 12:08:21;;;;;;;5.73;0.77;;;13.80;99.90;;;;;;4901570;29;20217;-75
2023/11/19 12:10:50;;;;;;;4.13;0.73;;;13.90;99.90;;;;;;4901536;29;20269;-74
2023/11/19 12:13:19;;;;;;;4.57;0.90;;;13.90;99.90;;;;;;4901408;29;20300;-75
2023/11/19 12:16:11;;;;;;;3.77;0.60;;;13.90;99.90;;;;;;4901295;29;20206;-75
2023/11/19 12:18:41;;;;;;;6.40;1.30;;;13.90;99.90;;;;;;4897931;29;20210;-75
2023/11/19 12:21:09;;;;;;;4.47;0.90;;;13.80;99.90;;;;;;4900526;29;20721;-75
2023/11/19 12:23:37;;;;;;;4.47;0.83;;;13.80;99.90;;;;;;4901031;29;20309;-75
2023/11/19 12:26:04;;;;;;;2.73;0.73;;;13.90;99.90;;;;;;4900823;29;20214;-74
2023/11/19 12:28:33;;;;;;;5.83;1.20;;;13.80;99.90;;;;;;4900719;29;20224;-74
2023/11/19 12:31:09;;;;;;;3.60;0.70;;;13.60;99.90;;;;;;4900887;29;20293;-75
2023/11/19 12:33:37;;;;;;;5.80;0.70;;;13.30;99.90;;;;;;4900624;29;20214;-75
2023/11/19 12:36:06;;;;;;;3.37;0.80;;;13.10;99.90;;;;;;4900928;29;20241;-74
2023/11/19 12:38:32;;;;;;;6.47;0.93;;;13.00;99.90;;;;;;4900633;29;20210;-74
2023/11/19 12:41:06;;;;;;;8.13;1.00;;;13.00;99.90;;;;;;4901114;29;20298;-74
2023/11/19 12:43:36;;;;;;;8.73;1.27;;;13.10;99.90;;;;;;4900634;29;20685;-76
2023/11/19 12:46:03;;;;;;;6.70;1.53;;;13.00;99.90;;;;;;4900844;29;20226;-74
2023/11/19 12:48:29;;;;;;;4.23;0.80;;;13.10;99.90;;;;;;4900768;29;20210;-74
2023/11/19 12:50:58;;;;;;;8.53;0.90;;;13.20;99.90;;;;;;4900485;29;20216;-73
2023/11/19 12:53:26;;;;;;;1.77;0.67;;;13.20;99.90;;;;;;4900352;29;20266;-75
2023/11/19 12:55:55;;;;;;;6.00;0.90;;;13.40;99.90;;;;;;4900850;29;20293;-75
2023/11/19 12:58:32;;;;;;;5.10;0.97;;;13.40;99.90;;;;;;4900162;29;20207;-74
2023/11/19 13:01:05;;;;;;;5.00;0.67;;;13.50;99.90;;;;;;4900090;29;20238;-75
2023/11/19 13:03:33;;;;;;;6.00;1.17;;;13.50;99.90;;;;;;4900041;29;20282;-75
2023/11/19 13:06:05;;;;;;;6.00;1.13;;;13.50;99.90;;;;;;4900010;29;20236;-75
2023/11/19 13:08:38;;;;;;;5.73;1.00;;;13.50;99.90;;;;;;4900687;29;20214;-75
2023/11/19 13:11:07;;;;;;;7.50;0.90;;;13.70;99.90;;;;;;4900330;29;20670;-76
2023/11/19 13:13:35;;;;;;;5.43;1.10;;;13.60;99.90;;;;;;4900397;29;20245;-76
2023/11/19 13:16:08;;;;;;;9.80;1.17;;;13.70;99.90;;;;;;4900288;29;20278;-75
2023/11/19 13:18:35;;;;;;;9.67;0.90;;;13.60;99.90;;;;;;4900634;29;20210;-75
2023/11/19 13:21:02;;;;;;;9.27;1.77;;;13.60;99.90;;;;;;4900320;29;20732;-75
2023/11/19 13:23:29;;;;;;;7.40;1.00;;;13.60;99.90;;;;;;4900149;29;20625;-76
2023/11/19 13:25:56;;;;;;;9.10;1.03;;;13.70;99.90;;;;;;4900302;29;20216;-76
2023/11/19 13:28:23;;;;;;;3.93;0.80;;;13.70;99.90;;;;;;4899490;29;20228;-72
2023/11/19 13:30:51;;;;;;;4.20;1.23;;;13.70;99.90;;;;;;4900024;29;20210;-73
2023/11/19 13:33:19;;;;;;;3.47;0.80;;;13.70;99.90;;;;;;4899909;29;20748;-72
2023/11/19 13:35:46;;;;;;;7.10;1.13;;;13.60;99.90;;;;;;4899988;29;20601;-72
2023/11/19 13:38:13;;;;;;;4.93;0.80;;;13.60;99.90;;;;;;4899752;29;20298;-72
2023/11/19 13:40:40;;;;;;;6.17;1.20;;;13.50;99.90;;;;;;4899714;29;20206;-72
2023/11/19 13:43:07;;;;;;;8.73;1.10;;;13.50;99.90;;;;;;4899776;29;20211;-72
2023/11/19 13:45:34;;;;;;;9.33;2.00;;;13.40;99.90;;;;;;4899841;29;20325;-73
2023/11/19 13:48:01;;;;;;;12.27;1.73;;;13.30;99.90;;;;;;4899772;29;20213;-74
2023/11/19 13:50:29;;;;;;;6.03;0.73;;;13.20;99.90;;;;;;4899710;29;20241;-72
2023/11/19 13:52:56;;;;;;;5.37;0.80;;;13.30;99.90;;;;;;4899467;29;20641;-74
2023/11/19 13:55:23;;;;;;;6.10;0.97;;;13.20;99.90;;;;;;4899344;29;20238;-72
2023/11/19 13:57:50;;;;;;;9.67;2.27;;;13.10;99.90;;;;;;4899550;29;20211;-72
2023/11/19 14:00:18;;;;;;;6.43;0.93;;;13.10;99.90;;;;;;4897122;29;20569;-72
2023/11/19 14:02:46;;;;;;;6.83;0.93;;;13.10;99.90;;;;;;4895457;29;20234;-73
2023/11/19 14:05:14;;;;;;;10.07;1.67;;;13.00;99.90;;;;;;4899479;29;20241;-72
2023/11/19 14:07:42;;;;;;;6.70;1.40;;;12.90;99.90;;;;;;4899048;29;20237;-72
2023/11/19 14:10:10;;;;;;;9.23;1.30;;;12.90;99.90;;;;;;4898921;29;20349;-73
2023/11/19 14:12:38;;;;;;;8.03;2.27;;;13.00;99.90;;;;;;4894444;29;20206;-71
2023/11/19 14:15:06;;;;;;;7.47;1.17;;;13.00;99.90;;;;;;4898021;29;20227;-72
2023/11/19 14:17:33;;;;;;;8.47;1.27;;;13.00;99.90;;;;;;4892663;29;20243;-71
2023/11/19 14:20:00;;;;;;;6.10;1.00;;;13.00;99.90;;;;;;4895012;29;20211;-72
2023/11/19 14:22:27;;;;;;;7.40;1.27;;;13.00;99.90;;;;;;4898310;29;20325;-75
2023/11/19 14:24:55;;;;;;;13.37;1.40;;;13.10;99.90;;;;;;4898710;29;20261;-77
2023/11/19 14:27:22;;;;;;;7.43;1.20;;;13.10;99.90;;;;;;4895040;29;20294;-72
2023/11/19 14:29:50;;;;;;;7.20;0.70;;;13.10;99.90;;;;;;4879874;29;20206;-72
2023/11/19 14:32:17;;;;;;;10.60;1.40;;;13.10;99.90;;;;;;4895453;29;20202;-72
2023/11/19 14:34:45;;;;;;;5.20;1.77;;;13.10;99.90;;;;;;4898499;29;20238;-73
2023/11/19 14:37:11;;;;;;;6.13;1.20;;;13.00;99.90;;;;;;4896525;29;20214;-74
2023/11/19 14:39:38;;;;;;;6.97;1.20;;;12.80;99.90;;;;;;4880077;29;20218;-72
2023/11/19 14:42:07;;;;;;;6.30;0.93;;;12.70;99.90;;;;;;4879573;29;20744;-73
2023/11/19 14:44:35;;;;;;;8.07;1.13;;;12.60;99.90;;;;;;4880023;29;20237;-73
2023/11/19 14:47:02;;;;;;;4.30;1.00;;;12.50;99.90;;;;;;4880077;29;20207;-73
2023/11/19 14:49:29;;;;;;;6.80;1.00;;;12.40;99.90;;;;;;4898671;29;20301;-72
2023/11/19 14:51:55;;;;;;;6.20;0.90;;;12.40;99.90;;;;;;4898369;29;20202;-72
2023/11/19 14:54:24;;;;;;;13.20;1.47;;;12.30;99.90;;;;;;4898317;29;20562;-73
2023/11/19 14:56:51;;;;;;;10.70;1.30;;;12.30;99.90;;;;;;4898251;29;20254;-73
2023/11/19 14:59:20;;;;;;;7.13;1.87;;;12.40;99.90;;;;;;4898460;29;20214;-73
2023/11/19 15:01:46;;;;;;;14.77;1.63;;;12.40;99.90;;;;;;4897909;29;20321;-73
2023/11/19 15:04:13;;;;;;;8.03;1.40;;;12.50;99.90;;;;;;4897899;29;20237;-72
2023/11/19 15:06:40;;;;;;;4.70;1.50;;;12.50;99.90;;;;;;4897746;29;20210;-73
2023/11/19 15:09:07;;;;;;;12.23;1.70;;;12.50;99.90;;;;;;4880103;29;20218;-72
2023/11/19 15:11:34;;;;;;;8.50;1.30;;;12.40;99.90;;;;;;4883902;29;20249;-73
2023/11/19 15:14:02;;;;;;;7.87;2.10;;;12.40;99.90;;;;;;4898246;29;20230;-73
2023/11/19 15:16:33;;;;;;;8.47;1.70;;;12.40;99.90;;;;;;4897854;29;20213;-75
2023/11/19 15:19:00;;;;;;;9.37;3.20;;;12.40;99.90;;;;;;4897532;29;20210;-73
2023/11/19 15:21:28;;;;;;;9.83;1.60;;;12.40;99.90;;;;;;4897805;29;20226;-74
2023/11/19 15:23:55;;;;;;;11.10;1.97;;;12.40;99.90;;;;;;4897586;29;20781;-72
2023/11/19 15:26:22;;;;;;;9.13;1.60;;;12.40;99.90;;;;;;4897693;29;20207;-74
2023/11/19 15:28:49;;;;;;;9.93;2.27;;;12.50;99.90;;;;;;4897056;29;20218;-72
2023/11/19 15:31:16;;;;;;;5.73;0.90;;;12.50;99.90;;;;;;4897321;29;20216;-72
2023/11/19 15:33:46;;;;;;;8.43;1.53;;;12.50;99.90;;;;;;4897575;29;20231;-72
2023/11/19 15:36:14;;;;;;;6.00;1.47;;;12.50;99.90;;;;;;4897511;29;20220;-75
2023/11/19 15:38:41;;;;;;;6.60;1.13;;;12.60;99.90;;;;;;4897828;29;20298;-73
2023/11/19 15:41:08;;;;;;;4.57;0.97;;;12.60;99.90;;;;;;4897384;29;20619;-73
2023/11/19 15:43:35;;;;;;;8.10;0.90;;;12.70;99.90;;;;;;4897325;29;20206;-73
2023/11/19 15:46:02;;;;;;;12.13;1.70;;;12.70;99.90;;;;;;4897695;29;20210;-73
2023/11/19 15:48:28;;;;;;;5.80;1.20;;;12.70;99.90;;;;;;4897901;29;20214;-71
2023/11/19 15:50:56;;;;;;;9.00;1.60;;;12.70;99.90;;;;;;4897391;29;20212;-74
2023/11/19 15:53:23;;;;;;;6.70;1.20;;;12.70;99.90;;;;;;4897132;29;20214;-74
2023/11/19 15:55:52;;;;;;;7.17;1.83;;;12.80;99.90;;;;;;4897603;29;20210;-72
2023/11/19 15:58:19;;;;;;;10.77;1.23;;;12.80;99.90;;;;;;4897365;29;20231;-73
2023/11/19 16:00:47;;;;;;;6.93;1.03;;;12.80;99.90;;;;;;4897588;29;20228;-72
2023/11/19 16:03:14;;;;;;;3.93;0.90;;;12.80;99.90;;;;;;4897417;29;20229;-72
2023/11/19 16:05:41;;;;;;;6.50;1.30;;;12.80;99.90;;;;;;4879630;29;20235;-73
2023/11/19 16:08:10;;;;;;;5.77;1.57;;;12.70;99.90;;;;;;4881924;29;20306;-70
2023/11/19 16:10:39;;;;;;;7.63;1.10;;;12.70;99.90;;;;;;4878702;29;20207;-71
2023/11/19 16:13:07;;;;;;;5.67;1.10;;;12.60;99.90;;;;;;4878701;29;20335;-70
2023/11/19 16:15:34;;;;;;;4.00;1.00;;;12.60;99.90;;;;;;4879108;29;20233;-70
2023/11/19 16:18:01;;;;;;;7.03;1.20;;;12.60;99.90;;;;;;4878833;29;20218;-71
2023/11/19 16:20:28;;;;;;;5.30;1.13;;;12.60;99.90;;;;;;4878456;29;20219;-71
2023/11/19 16:22:55;;;;;;;6.13;1.83;;;12.50;99.90;;;;;;4878284;29;20242;-70
2023/11/19 16:25:23;;;;;;;6.47;1.70;;;12.50;99.90;;;;;;4878790;29;20235;-71
2023/11/19 16:27:50;;;;;;;8.17;1.50;;;12.40;99.90;;;;;;4878377;29;20218;-72
2023/11/19 16:30:17;;;;;;;8.53;2.10;;;12.40;99.90;;;;;;4878853;29;20318;-70
2023/11/19 16:32:53;;;;;;;11.40;2.77;;;12.30;99.90;;;;;;4887298;29;20211;-74
2023/11/19 16:35:20;;;;;;;3.17;0.90;;;12.20;99.90;;;;;;4897200;29;20233;-73
2023/11/19 16:37:47;;;;;;;8.10;2.23;;;12.20;99.90;;;;;;4897178;29;20206;-73
2023/11/19 16:40:14;;;;;;;4.07;0.97;;;12.20;99.90;;;;;;4899357;29;20214;-74
2023/11/19 16:42:42;;;;;;;8.60;1.50;;;12.20;99.90;;;;;;4900786;29;20234;-75
2023/11/19 16:45:10;;;;;;;7.40;1.23;;;12.10;99.90;;;;;;4900798;29;20706;-77
2023/11/19 16:47:37;;;;;;;3.90;0.90;;;11.90;99.90;;;;;;4902726;29;20297;-78
2023/11/19 16:50:04;;;;;;;5.50;1.07;;;11.80;99.90;;;;;;4902941;29;20301;-74
2023/11/19 16:52:32;;;;;;;10.80;1.73;;;11.60;99.90;;;;;;4900382;29;20298;-74
2023/11/19 16:54:59;;;;;;;9.27;1.40;;;11.60;99.90;;;;;;4900314;29;20239;-76
2023/11/19 16:57:27;;;;;;;7.83;1.30;;;11.60;99.90;;;;;;4895415;29;20203;-74
2023/11/19 16:59:56;;;;;;;6.70;1.67;;;11.60;99.90;;;;;;4881856;29;20670;-73
2023/11/19 17:02:23;;;;;;;12.30;1.57;;;11.60;99.90;;;;;;4886491;29;20237;-77
2023/11/19 17:04:50;;;;;;;5.27;1.47;;;11.60;99.90;;;;;;4900551;29;20237;-72
2023/11/19 17:07:17;;;;;;;4.30;1.17;;;11.60;99.90;;;;;;4896330;29;20210;-72
2023/11/19 17:09:43;;;;;;;6.57;1.23;;;11.60;99.90;;;;;;4881858;29;20211;-73
2023/11/19 17:12:11;;;;;;;7.50;1.30;;;11.60;99.90;;;;;;4881366;29;20210;-74
2023/11/19 17:14:39;;;;;;;6.43;0.90;;;11.70;99.90;;;;;;4881523;29;20234;-75
2023/11/19 17:17:07;;;;;;;5.43;1.10;;;11.70;99.90;;;;;;4881440;29;20662;-75
2023/11/19 17:19:34;;;;;;;5.40;1.50;;;11.70;99.90;;;;;;4881795;29;20306;-80
2023/11/19 17:22:02;;;;;;;19.77;2.37;;;11.70;99.90;;;;;;4881640;29;20692;-79
2023/11/19 17:24:29;;;;;;;3.93;1.20;;;11.70;99.90;;;;;;4881344;29;20326;-75
2023/11/19 17:26:56;;;;;;;5.80;0.87;;;11.70;99.90;;;;;;4881475;29;20240;-75
2023/11/19 17:29:23;;;;;;;8.30;1.97;;;11.70;99.90;;;;;;4900300;29;20206;-75
2023/11/19 17:31:50;;;;;;;9.13;1.30;;;11.70;99.90;;;;;;4900551;29;20213;-77
2023/11/19 17:34:21;;;;;;;10.30;1.47;;;11.70;99.90;;;;;;4900055;29;20226;-74
2023/11/19 17:36:47;;;;;;;7.63;1.87;;;11.70;99.90;;;;;;4900023;29;20237;-78
2023/11/19 17:39:14;;;;;;;8.87;2.47;;;11.70;99.90;;;;;;4899599;29;20217;-74
2023/11/19 17:41:41;;;;;;;7.57;0.87;;;11.70;99.90;;;;;;4899890;29;20218;-73
2023/11/19 17:44:08;;;;;;;5.77;1.03;;;11.70;99.90;;;;;;4899207;29;20230;-72
2023/11/19 17:46:35;;;;;;;4.43;1.20;;;11.70;99.90;;;;;;4899721;29;20581;-74
2023/11/19 17:49:02;;;;;;;6.27;0.90;;;11.70;99.90;;;;;;4899385;29;20292;-76
2023/11/19 17:51:30;;;;;;;2.63;0.93;;;11.70;99.90;;;;;;4890839;29;20211;-71
2023/11/19 17:53:57;;;;;;;8.23;1.07;;;11.60;99.90;;;;;;4895184;29;20232;-75
2023/11/19 17:56:24;;;;;;;8.97;1.67;;;11.70;99.90;;;;;;4899386;29;20210;-71
2023/11/19 17:58:51;;;;;;;8.17;0.93;;;11.60;99.90;;;;;;4898924;29;20203;-71
2023/11/19 18:01:18;;;;;;;3.30;1.20;;;11.50;99.90;;;;;;4899293;29;20225;-77
2023/11/19 18:03:45;;;;;;;6.40;1.27;;;11.50;99.90;;;;;;4898683;29;20248;-73
2023/11/19 18:06:17;;;;;;;8.83;1.83;;;11.50;99.90;;;;;;4899126;29;20214;-71
2023/11/19 18:08:46;;;;;;;8.70;1.13;;;11.40;99.90;;;;;;4884336;29;20242;-78
2023/11/19 18:11:13;;;;;;;1.97;0.80;;;11.40;99.90;;;;;;4898046;29;20607;-76
2023/11/19 18:13:40;;;;;;;5.77;1.60;;;11.50;99.90;;;;;;4897770;29;20321;-77
2023/11/19 18:16:12;;;;;;;10.00;1.60;;;11.50;99.90;;;;;;4898616;29;20222;-78
2023/11/19 18:18:39;;;;;;;5.83;1.50;;;11.50;99.90;;;;;;4895726;29;20214;-74
2023/11/19 18:21:07;;;;;;;10.80;1.43;;;11.60;99.90;;;;;;4898787;29;20218;-72
2023/11/19 18:23:33;;;;;;;6.57;1.40;;;11.60;99.90;;;;;;4891790;29;20241;-77
2023/11/19 18:26:02;;;;;;;2.53;0.90;;;11.70;99.90;;;;;;4883822;29;20216;-76
2023/11/19 18:28:29;;;;;;;5.67;1.30;;;11.80;99.90;;;;;;4896092;29;20241;-78
2023/11/19 18:30:57;;;;;;;3.87;1.13;;;11.80;99.90;;;;;;4898457;29;20210;-74
2023/11/19 18:33:23;;;;;;;6.53;1.37;;;11.90;99.90;;;;;;4895684;29;20262;-72
2023/11/19 18:35:50;;;;;;;6.67;1.20;;;11.90;99.90;;;;;;4897953;29;20211;-75
2023/11/19 18:38:17;;;;;;;6.10;1.30;;;11.90;99.90;;;;;;4893097;29;20582;-78
2023/11/19 18:40:44;;;;;;;4.97;1.10;;;11.90;99.90;;;;;;4890615;29;20206;-76
2023/11/19 18:43:13;;;;;;;7.77;1.40;;;11.80;99.90;;;;;;4895711;29;20248;-74
2023/11/19 18:45:40;;;;;;;3.23;1.03;;;11.80;99.90;;;;;;4887972;29;20230;-75
2023/11/19 18:48:06;;;;;;;4.00;1.07;;;11.80;99.90;;;;;;4883444;29;20215;-73
